Time;durP1;ratioP1;P1;durP2;ratioP2;P2;SDS_P1;SDS_P2;PMS_P1;PMS_P2;Temp;Humidity;BMP_temperature;BMP_pressure;BME280_temperature;BME280_humidity;BME280_pressure;Samples;Min_cycle;Max_cycle;Signal;HPM_P1;HPM_P2
2022/03/09 00:01:47;;;;;;;;;;;3.20;99.90;;;;;;5155715;27;19974;-69
2022/03/09 00:04:13;;;;;;;;;;;2.80;99.90;;;;;;5155330;27;20438;-69
2022/03/09 00:06:39;;;;;;;;;;;3.90;99.90;;;;;;5155396;27;20434;-71
2022/03/09 00:09:04;;;;;;;;;;;3.60;99.90;;;;;;5155365;27;19923;-70
2022/03/09 00:11:30;;;;;;;;;;;2.80;99.90;;;;;;5136701;27;19923;-69
2022/03/09 00:13:56;;;;;;;;;;;2.80;99.90;;;;;;5155438;27;19923;-69
2022/03/09 00:16:21;;;;;;;;;;;3.40;99.90;;;;;;5155359;27;19930;-70
2022/03/09 00:18:47;;;;;;;;;;;3.60;99.90;;;;;;5155219;27;19923;-69
2022/03/09 00:21:13;;;;;;;;;;;3.50;99.90;;;;;;5155104;27;19923;-73
2022/03/09 00:23:39;;;;;;;;;;;3.80;99.90;;;;;;5155198;27;19922;-69
2022/03/09 00:26:05;;;;;;;;;;;3.40;99.90;;;;;;5136989;27;19977;-69
2022/03/09 00:28:30;;;;;;;;;;;3.10;99.90;;;;;;5155436;27;19927;-69
2022/03/09 00:30:56;;;;;;;;;;;2.70;99.90;;;;;;5155017;27;20021;-69
2022/03/09 00:33:22;;;;;;;;;;;2.60;99.90;;;;;;5136911;27;19930;-69
2022/03/09 00:35:47;;;;;;;;;;;3.20;99.90;;;;;;5155233;27;19923;-69
2022/03/09 00:38:13;;;;;;;;;;;3.60;99.90;;;;;;5155252;27;19923;-69
2022/03/09 00:40:39;;;;;;;;;;;2.60;99.90;;;;;;5155078;27;20389;-69
2022/03/09 00:43:04;;;;;;;;;;;4.60;99.90;;;;;;5136399;27;19923;-69
2022/03/09 00:45:30;;;;;;;;;;;2.50;99.90;;;;;;5155139;27;19927;-69
2022/03/09 00:47:55;;;;;;;;;;;2.50;99.90;;;;;;5154992;27;19923;-70
2022/03/09 00:50:21;;;;;;;;;;;4.00;99.90;;;;;;5155237;27;19924;-70
2022/03/09 00:52:49;;;;;;;;;;;2.40;99.90;;;;;;5155880;27;20454;-73
2022/03/09 00:55:15;;;;;;;;;;;3.10;99.90;;;;;;5158834;27;20289;-72
2022/03/09 00:57:41;;;;;;;;;;;2.50;99.90;;;;;;5158762;27;19930;-71
2022/03/09 01:00:07;;;;;;;;;;;2.30;99.90;;;;;;5123324;27;19923;-72
2022/03/09 01:02:38;;;;;;;;;;;2.30;99.90;;;;;;5158717;27;19987;-69
2022/03/09 01:05:04;;;;;;;;;;;4.20;99.90;;;;;;5158773;27;20010;-69
2022/03/09 01:07:29;;;;;;;;;;;2.30;99.90;;;;;;5140407;27;19989;-69
2022/03/09 01:09:55;;;;;;;;;;;3.60;99.90;;;;;;5158637;27;19923;-69
2022/03/09 01:12:21;;;;;;;;;;;2.30;99.90;;;;;;5158235;27;20297;-70
2022/03/09 01:14:46;;;;;;;;;;;3.90;99.90;;;;;;5158735;27;19946;-69
2022/03/09 01:17:12;;;;;;;;;;;3.00;99.90;;;;;;5140104;27;20010;-69
2022/03/09 01:19:37;;;;;;;;;;;2.30;99.90;;;;;;5158448;27;19981;-70
2022/03/09 01:22:03;;;;;;;;;;;3.40;99.90;;;;;;5139821;27;19975;-71
2022/03/09 01:24:28;;;;;;;;;;;3.70;99.90;;;;;;5140124;27;19930;-69
2022/03/09 01:26:54;;;;;;;;;;;2.20;99.90;;;;;;5158191;27;20277;-69
2022/03/09 01:29:19;;;;;;;;;;;3.00;99.90;;;;;;5158149;27;20388;-69
2022/03/09 01:31:45;;;;;;;;;;;3.40;99.90;;;;;;5158278;27;20293;-69
2022/03/09 01:34:10;;;;;;;;;;;2.80;99.90;;;;;;5158169;27;19923;-69
2022/03/09 01:36:37;;;;;;;;;;;2.20;99.90;;;;;;5158167;27;19923;-69
2022/03/09 01:39:03;;;;;;;;;;;3.10;99.90;;;;;;5139884;27;19927;-71
2022/03/09 01:41:28;;;;;;;;;;;2.80;99.90;;;;;;5157913;27;20323;-69
2022/03/09 01:44:11;;;;;;;;;;;2.20;99.90;;;;;;5139338;27;20298;-71
2022/03/09 01:46:37;;;;;;;;;;;2.30;99.90;;;;;;5158003;27;19923;-69
2022/03/09 01:49:03;;;;;;;;;;;2.20;99.90;;;;;;5157834;27;20015;-71
2022/03/09 01:51:30;;;;;;;;;;;3.50;99.90;;;;;;5139481;27;19930;-69
2022/03/09 01:53:55;;;;;;;;;;;3.20;99.90;;;;;;5157757;27;19923;-69
2022/03/09 01:56:21;;;;;;;;;;;2.40;99.90;;;;;;5122179;27;19923;-72
2022/03/09 01:58:46;;;;;;;;;;;3.10;99.90;;;;;;5157674;27;19968;-69
2022/03/09 02:01:12;;;;;;;;;;;3.60;99.90;;;;;;5157737;27;20005;-73
2022/03/09 02:03:38;;;;;;;;;;;3.10;99.90;;;;;;5157114;27;20005;-68
2022/03/09 02:06:03;;;;;;;;;;;2.90;99.90;;;;;;5139032;27;19945;-69
2022/03/09 02:11:14;;;;;;;;;;;2.20;99.90;;;;;;5157228;27;19976;-70
2022/03/09 02:13:39;;;;;;;;;;;1.90;99.90;;;;;;5157394;27;20320;-69
2022/03/09 02:16:05;;;;;;;;;;;1.80;99.90;;;;;;5157319;27;19930;-69
2022/03/09 02:18:31;;;;;;;;;;;1.90;99.90;;;;;;5157174;27;19923;-69
2022/03/09 02:20:58;;;;;;;;;;;3.10;99.90;;;;;;5157098;27;19983;-71
2022/03/09 02:23:24;;;;;;;;;;;3.20;99.90;;;;;;5138638;27;20279;-73
2022/03/09 02:25:50;;;;;;;;;;;1.60;99.90;;;;;;5156986;27;19999;-69
2022/03/09 02:28:15;;;;;;;;;;;2.20;99.90;;;;;;5157186;27;19923;-69
2022/03/09 02:30:41;;;;;;;;;;;3.00;99.90;;;;;;5138258;27;19923;-70
2022/03/09 02:33:06;;;;;;;;;;;1.60;99.90;;;;;;5156969;27;19975;-69
2022/03/09 02:35:32;;;;;;;;;;;1.30;99.90;;;;;;5138372;27;20015;-71
2022/03/09 02:37:57;;;;;;;;;;;2.30;99.90;;;;;;5156964;27;19923;-73
2022/03/09 02:40:23;;;;;;;;;;;2.60;99.90;;;;;;5138329;27;20487;-69
2022/03/09 02:42:48;;;;;;;;;;;2.90;99.90;;;;;;5156956;27;20331;-73
2022/03/09 02:45:14;;;;;;;;;;;1.90;99.90;;;;;;5156879;27;19923;-70
2022/03/09 02:47:40;;;;;;;;;;;1.70;99.90;;;;;;5138247;27;19931;-69
2022/03/09 02:50:06;;;;;;;;;;;1.60;99.90;;;;;;5156779;27;19923;-70
2022/03/09 02:52:31;;;;;;;;;;;1.60;99.90;;;;;;5156554;27;19934;-68
2022/03/09 02:54:57;;;;;;;;;;;2.30;99.90;;;;;;5156493;27;20018;-69
2022/03/09 02:57:22;;;;;;;;;;;0.40;99.90;;;;;;5156386;27;19930;-69
2022/03/09 02:59:49;;;;;;;;;;;2.30;99.90;;;;;;5138506;27;19923;-70
2022/03/09 03:02:15;;;;;;;;;;;2.00;99.90;;;;;;5156450;27;19930;-70
2022/03/09 03:04:40;;;;;;;;;;;2.20;99.90;;;;;;5156283;27;19923;-71
2022/03/09 03:07:06;;;;;;;;;;;1.50;99.90;;;;;;5137635;27;19970;-69
2022/03/09 03:09:31;;;;;;;;;;;3.20;99.90;;;;;;5156243;27;19923;-69
2022/03/09 03:11:57;;;;;;;;;;;1.50;99.90;;;;;;5156200;27;19930;-69
2022/03/09 03:14:22;;;;;;;;;;;3.00;99.90;;;;;;5155909;27;19931;-69
2022/03/09 03:16:48;;;;;;;;;;;1.50;99.90;;;;;;5137012;27;20014;-72
2022/03/09 03:19:13;;;;;;;;;;;3.40;99.90;;;;;;5137095;27;19923;-69
2022/03/09 03:21:39;;;;;;;;;;;2.50;99.90;;;;;;5137709;27;20289;-70
2022/03/09 03:24:05;;;;;;;;;;;3.00;99.90;;;;;;5137588;27;20452;-69
2022/03/09 03:26:30;;;;;;;;;;;0.50;99.90;;;;;;5137738;27;19923;-72
2022/03/09 03:28:58;;;;;;;;;;;1.40;99.90;;;;;;5155800;27;19923;-69
2022/03/09 03:31:24;;;;;;;;;;;1.70;99.90;;;;;;5156012;27;20466;-71
2022/03/09 03:33:50;;;;;;;;;;;2.30;99.90;;;;;;5155895;27;20034;-69
2022/03/09 03:36:15;;;;;;;;;;;1.40;99.90;;;;;;5137565;27;19924;-69
2022/03/09 03:38:41;;;;;;;;;;;2.90;99.90;;;;;;5155881;27;19923;-69
2022/03/09 03:41:07;;;;;;;;;;;2.90;99.90;;;;;;5155775;27;20396;-68
2022/03/09 03:43:32;;;;;;;;;;;3.10;99.90;;;;;;5155502;27;19927;-70
2022/03/09 03:45:58;;;;;;;;;;;1.70;99.90;;;;;;5155878;27;19975;-71
2022/03/09 03:48:23;;;;;;;;;;;3.30;99.90;;;;;;5137208;27;19923;-69
2022/03/09 03:50:49;;;;;;;;;;;1.20;99.90;;;;;;5155666;27;20106;-69
2022/03/09 03:53:14;;;;;;;;;;;1.20;99.90;;;;;;5137440;27;20370;-69
2022/03/09 03:55:40;;;;;;;;;;;2.50;99.90;;;;;;5155482;27;19923;-68
2022/03/09 03:58:05;;;;;;;;;;;2.40;99.90;;;;;;5155474;27;19974;-69
2022/03/09 04:00:31;;;;;;;;;;;1.00;99.90;;;;;;5155320;27;19968;-70
2022/03/09 04:02:57;;;;;;;;;;;2.80;99.90;;;;;;5136968;27;19923;-69
2022/03/09 04:05:22;;;;;;;;;;;2.30;99.90;;;;;;5137087;27;19923;-69
2022/03/09 04:07:48;;;;;;;;;;;2.90;99.90;;;;;;5155410;27;19930;-69
2022/03/09 04:10:13;;;;;;;;;;;2.90;99.90;;;;;;5155487;27;20343;-68
2022/03/09 04:12:39;;;;;;;;;;;1.30;99.90;;;;;;5155163;27;20307;-68
2022/03/09 04:15:05;;;;;;;;;;;0.90;99.90;;;;;;5155116;27;20297;-71
2022/03/09 04:17:37;;;;;;;;;;;0.90;99.90;;;;;;5155290;27;19923;-70
2022/03/09 04:20:03;;;;;;;;;;;1.70;99.90;;;;;;5155361;27;19923;-69
2022/03/09 04:22:29;;;;;;;;;;;0.80;99.90;;;;;;5155286;27;19930;-70
2022/03/09 04:24:54;;;;;;;;;;;3.00;99.90;;;;;;5137049;27;19923;-72
2022/03/09 04:27:20;;;;;;;;;;;2.40;99.90;;;;;;5157185;27;19923;-69
2022/03/09 04:29:46;;;;;;;;;;;1.00;99.90;;;;;;5140870;27;20392;-70
2022/03/09 04:32:11;;;;;;;;;;;1.70;99.90;;;;;;5141246;27;20285;-69
2022/03/09 04:34:37;;;;;;;;;;;0.90;99.90;;;;;;5159405;27;19930;-70
2022/03/09 04:37:02;;;;;;;;;;;0.90;99.90;;;;;;5123288;27;19923;-70
2022/03/09 04:39:28;;;;;;;;;;;0.90;99.90;;;;;;5141009;27;19972;-70
2022/03/09 04:41:54;;;;;;;;;;;2.90;99.90;;;;;;5159104;27;19930;-68
2022/03/09 04:44:19;;;;;;;;;;;0.80;99.90;;;;;;5140789;27;19927;-69
2022/03/09 04:46:45;;;;;;;;;;;0.80;99.90;;;;;;5140519;27;19983;-69
2022/03/09 04:49:10;;;;;;;;;;;1.00;99.90;;;;;;5159306;27;19926;-68
2022/03/09 04:51:36;;;;;;;;;;;0.70;99.90;;;;;;5159114;27;19974;-73
2022/03/09 04:54:02;;;;;;;;;;;2.50;99.90;;;;;;5159017;27;20014;-69
2022/03/09 04:56:27;;;;;;;;;;;1.40;99.90;;;;;;5158869;27;20405;-69
2022/03/09 04:58:53;;;;;;;;;;;0.80;99.90;;;;;;5140574;27;19923;-69
2022/03/09 05:01:18;;;;;;;;;;;1.50;99.90;;;;;;5140369;27;20297;-69
2022/03/09 05:03:44;;;;;;;;;;;0.60;99.90;;;;;;5140311;27;19923;-69
2022/03/09 05:06:10;;;;;;;;;;;0.60;99.90;;;;;;5158852;27;20078;-69
2022/03/09 05:08:35;;;;;;;;;;;1.10;99.90;;;;;;5140534;27;20403;-72
2022/03/09 05:11:01;;;;;;;;;;;1.50;99.90;;;;;;5140414;27;19966;-69
2022/03/09 05:13:26;;;;;;;;;;;1.00;99.90;;;;;;5158429;27;19923;-69
2022/03/09 05:15:52;;;;;;;;;;;0.50;99.90;;;;;;5158364;27;20293;-69
2022/03/09 05:18:17;;;;;;;;;;;0.60;99.90;;;;;;5158557;27;19927;-69
2022/03/09 05:20:43;;;;;;;;;;;0.50;99.90;;;;;;5140231;27;20368;-69
2022/03/09 05:23:09;;;;;;;;;;;0.50;99.90;;;;;;5158402;27;20322;-70
2022/03/09 05:25:34;;;;;;;;;;;2.40;99.90;;;;;;5140228;27;20331;-68
2022/03/09 05:28:00;;;;;;;;;;;2.90;99.90;;;;;;5158394;27;20305;-70
2022/03/09 05:30:26;;;;;;;;;;;1.90;99.90;;;;;;5140045;27;19923;-68
2022/03/09 05:32:52;;;;;;;;;;;0.50;99.90;;;;;;5157936;27;19923;-70
2022/03/09 05:35:17;;;;;;;;;;;0.50;99.90;;;;;;5158333;27;20408;-69
2022/03/09 05:37:44;;;;;;;;;;;0.50;99.90;;;;;;5158150;27;20401;-68
2022/03/09 05:40:09;;;;;;;;;;;0.40;99.90;;;;;;5139011;27;19924;-69
2022/03/09 05:42:36;;;;;;;;;;;1.50;99.90;;;;;;5139556;27;19923;-68
2022/03/09 05:45:02;;;;;;;;;;;2.20;99.90;;;;;;5157847;27;19923;-69
2022/03/09 05:47:27;;;;;;;;;;;1.70;99.90;;;;;;5157821;27;19969;-68
2022/03/09 05:49:53;;;;;;;;;;;0.80;99.90;;;;;;5157837;27;19935;-70
2022/03/09 05:52:18;;;;;;;;;;;0.40;99.90;;;;;;5139721;27;19923;-69
2022/03/09 05:54:45;;;;;;;;;;;2.30;99.90;;;;;;5157892;27;20377;-69
2022/03/09 05:57:11;;;;;;;;;;;-1.10;99.90;;;;;;5157772;27;19931;-71
2022/03/09 05:59:37;;;;;;;;;;;1.50;99.90;;;;;;5157674;27;19930;-69
2022/03/09 06:02:03;;;;;;;;;;;0.30;99.90;;;;;;5139004;27;19927;-70
2022/03/09 06:04:28;;;;;;;;;;;0.40;99.90;;;;;;5139286;27;19923;-69
2022/03/09 06:06:54;;;;;;;;;;;0.30;99.90;;;;;;5157663;27;19923;-70
2022/03/09 06:09:19;;;;;;;;;;;0.30;99.90;;;;;;5139343;27;19927;-69
2022/03/09 06:11:45;;;;;;;;;;;0.30;99.90;;;;;;5139310;27;19968;-72
2022/03/09 06:14:10;;;;;;;;;;;0.70;99.90;;;;;;5157187;27;20396;-68
2022/03/09 06:16:36;;;;;;;;;;;0.20;99.90;;;;;;5139081;27;20327;-68
2022/03/09 06:19:01;;;;;;;;;;;2.00;99.90;;;;;;5138346;27;20017;-69
2022/03/09 06:21:27;;;;;;;;;;;0.20;99.90;;;;;;5156941;27;19923;-70
2022/03/09 06:23:53;;;;;;;;;;;0.30;99.90;;;;;;5121673;27;19971;-69
2022/03/09 06:26:18;;;;;;;;;;;0.50;99.90;;;;;;5138970;27;19923;-70
2022/03/09 06:28:44;;;;;;;;;;;2.00;99.90;;;;;;5138634;27;20379;-70
2022/03/09 06:31:09;;;;;;;;;;;0.20;99.90;;;;;;5157004;27;19947;-67
2022/03/09 06:33:35;;;;;;;;;;;0.20;99.90;;;;;;5156841;27;19923;-71
2022/03/09 06:36:00;;;;;;;;;;;0.40;99.90;;;;;;5156949;27;19930;-73
2022/03/09 06:38:26;;;;;;;;;;;1.30;99.90;;;;;;5138507;27;19962;-67
2022/03/09 06:40:51;;;;;;;;;;;0.30;99.90;;;;;;5138755;27;20002;-70
2022/03/09 06:43:17;;;;;;;;;;;0.90;99.90;;;;;;5156713;27;20397;-69
2022/03/09 06:45:43;;;;;;;;;;;1.50;99.90;;;;;;5121394;27;19923;-69
2022/03/09 06:48:08;;;;;;;;;;;-0.50;99.90;;;;;;5156691;27;19923;-71
2022/03/09 06:50:34;;;;;;;;;;;1.60;99.90;;;;;;5156334;27;19924;-69
2022/03/09 06:53:00;;;;;;;;;;;0.50;99.90;;;;;;5138541;27;20390;-72
2022/03/09 06:55:26;;;;;;;;;;;0.60;99.90;;;;;;5156629;27;19923;-72
2022/03/09 06:57:51;;;;;;;;;;;0.80;99.90;;;;;;5138503;27;19923;-71
2022/03/09 07:00:17;;;;;;;;;;;0.60;99.90;;;;;;5156543;27;19970;-71
2022/03/09 07:02:43;;;;;;;;;;;1.60;99.90;;;;;;5156232;27;20385;-69
2022/03/09 07:05:09;;;;;;;;;;;2.50;99.90;;;;;;5156281;27;19991;-71
2022/03/09 07:07:35;;;;;;;;;;;0.70;99.90;;;;;;5156463;27;19930;-69
2022/03/09 07:10:01;;;;;;;;;;;0.80;99.90;;;;;;5121120;27;19923;-69
2022/03/09 07:12:26;;;;;;;;;;;3.10;99.90;;;;;;5137545;27;19923;-72
2022/03/09 07:14:52;;;;;;;;;;;1.70;99.90;;;;;;5137558;27;20411;-68
2022/03/09 07:17:18;;;;;;;;;;;0.90;99.90;;;;;;5156067;27;19923;-70
2022/03/09 07:19:43;;;;;;;;;;;1.00;99.90;;;;;;5155943;27;19923;-70
2022/03/09 07:22:09;;;;;;;;;;;1.70;99.90;;;;;;5137779;27;20422;-69
2022/03/09 07:24:35;;;;;;;;;;;3.20;99.90;;;;;;5156135;27;19923;-68
2022/03/09 07:27:00;;;;;;;;;;;1.80;99.90;;;;;;5154931;27;19988;-69
2022/03/09 07:29:26;;;;;;;;;;;2.10;99.90;;;;;;5137708;27;19923;-71
2022/03/09 07:31:52;;;;;;;;;;;1.30;99.90;;;;;;5155825;27;19923;-69
2022/03/09 07:34:26;;;;;;;;;;;1.30;99.90;;;;;;5155404;27;19930;-68
2022/03/09 07:36:58;;;;;;;;;;;1.80;99.90;;;;;;5137226;27;19934;-69
2022/03/09 07:39:26;;;;;;;;;;;1.50;99.90;;;;;;5155744;27;19975;-70
2022/03/09 07:41:51;;;;;;;;;;;3.80;99.90;;;;;;5155719;27;19923;-69
2022/03/09 07:44:17;;;;;;;;;;;2.40;99.90;;;;;;5155733;27;19969;-69
2022/03/09 07:46:43;;;;;;;;;;;2.70;99.90;;;;;;5136587;27;20059;-72
2022/03/09 07:49:08;;;;;;;;;;;0.70;99.90;;;;;;5136868;27;19930;-69
2022/03/09 07:51:34;;;;;;;;;;;3.60;99.90;;;;;;5137195;27;19930;-69
2022/03/09 07:53:59;;;;;;;;;;;2.00;99.90;;;;;;5155663;27;20409;-71
2022/03/09 07:56:25;;;;;;;;;;;1.10;99.90;;;;;;5155480;27;20301;-69
2022/03/09 07:58:51;;;;;;;;;;;2.10;99.90;;;;;;5155381;27;20401;-69
2022/03/09 08:01:16;;;;;;;;;;;2.10;99.90;;;;;;5154915;27;19923;-69
2022/03/09 08:03:42;;;;;;;;;;;2.10;99.90;;;;;;5155214;27;19976;-68
2022/03/09 08:06:07;;;;;;;;;;;3.20;99.90;;;;;;5136698;27;20022;-68
2022/03/09 08:08:34;;;;;;;;;;;3.60;99.90;;;;;;5155453;27;19991;-68
2022/03/09 08:10:59;;;;;;;;;;;2.40;99.90;;;;;;5155404;27;19926;-72
2022/03/09 08:13:25;;;;;;;;;;;2.50;99.90;;;;;;5136747;27;19924;-67
2022/03/09 08:15:50;;;;;;;;;;;2.60;99.90;;;;;;5155219;27;19929;-69
2022/03/09 08:18:16;;;;;;;;;;;3.70;99.90;;;;;;5136896;27;19971;-70
2022/03/09 08:20:41;;;;;;;;;;;3.20;99.90;;;;;;5155263;27;20006;-69
2022/03/09 08:23:08;;;;;;;;;;;3.90;99.90;;;;;;5155395;27;19923;-71
2022/03/09 08:25:34;;;;;;;;;;;2.90;99.90;;;;;;5155153;27;19923;-71
2022/03/09 08:28:01;;;;;;;;;;;1.50;99.90;;;;;;5136974;27;20133;-68
2022/03/09 08:30:27;;;;;;;;;;;3.10;99.90;;;;;;5137070;27;20005;-69
2022/03/09 08:32:52;;;;;;;;;;;3.20;99.90;;;;;;5155195;27;20433;-68
2022/03/09 08:35:18;;;;;;;;;;;4.30;99.90;;;;;;5155014;27;19923;-68
2022/03/09 08:37:44;;;;;;;;;;;5.20;99.90;;;;;;5136473;27;19972;-68
2022/03/09 08:40:09;;;;;;;;;;;4.60;99.90;;;;;;5136323;27;19927;-69
2022/03/09 08:42:35;;;;;;;;;;;3.60;99.90;;;;;;5155180;27;19930;-69
2022/03/09 08:45:00;;;;;;;;;;;4.10;99.90;;;;;;5155130;27;20385;-69
2022/03/09 08:47:26;;;;;;;;;;;3.70;99.90;;;;;;5155022;27;20010;-69
2022/03/09 08:49:52;;;;;;;;;;;4.40;99.90;;;;;;5154864;27;19923;-70
2022/03/09 08:52:17;;;;;;;;;;;3.90;99.90;;;;;;5154719;27;19953;-71
2022/03/09 08:54:43;;;;;;;;;;;4.70;99.90;;;;;;5155087;27;19980;-68
2022/03/09 08:57:09;;;;;;;;;;;4.10;99.90;;;;;;5154978;27;19997;-68
2022/03/09 08:59:35;;;;;;;;;;;5.00;99.90;;;;;;5136582;27;19931;-68
2022/03/09 09:02:00;;;;;;;;;;;4.50;99.90;;;;;;5154924;27;19934;-72
2022/03/09 09:04:26;;;;;;;;;;;5.20;99.90;;;;;;5154590;27;20450;-69
2022/03/09 09:06:52;;;;;;;;;;;4.50;99.90;;;;;;5154706;27;19923;-69
2022/03/09 09:09:20;;;;;;;;;;;5.30;99.90;;;;;;5154978;27;20018;-69
2022/03/09 09:11:46;;;;;;;;;;;4.70;99.90;;;;;;5136562;27;19931;-71
2022/03/09 09:14:12;;;;;;;;;;;4.80;99.90;;;;;;5156505;27;20293;-70
2022/03/09 09:16:38;;;;;;;;;;;4.90;99.90;;;;;;5139892;27;19923;-70
2022/03/09 09:19:04;;;;;;;;;;;3.30;99.90;;;;;;5140062;27;20400;-69
2022/03/09 09:21:30;;;;;;;;;;;5.40;99.90;;;;;;5139730;27;19927;-68
2022/03/09 09:23:55;;;;;;;;;;;5.40;99.90;;;;;;5158256;27;19948;-69
2022/03/09 09:26:21;;;;;;;;;;;5.40;99.90;;;;;;5158362;27;19923;-69
2022/03/09 09:28:50;;;;;;;;;;;5.80;99.90;;;;;;5158056;27;20473;-69
2022/03/09 09:31:15;;;;;;;;;;;6.00;99.90;;;;;;5158278;27;19962;-71
2022/03/09 09:33:41;;;;;;;;;;;5.70;96.80;;;;;;5157878;27;19967;-69
2022/03/09 09:36:07;;;;;;;;;;;6.80;99.90;;;;;;5158034;27;19931;-71
2022/03/09 09:38:32;;;;;;;;;;;5.90;99.90;;;;;;5139449;27;20377;-68
2022/03/09 09:40:58;;;;;;;;;;;6.00;99.90;;;;;;5139268;27;20067;-69
2022/03/09 09:43:24;;;;;;;;;;;6.10;99.90;;;;;;5157737;27;20323;-69
2022/03/09 09:45:50;;;;;;;;;;;6.30;97.50;;;;;;5157938;27;19931;-70
2022/03/09 09:48:19;;;;;;;;;;;7.00;97.10;;;;;;5157983;27;19923;-69
2022/03/09 09:51:03;;;;;;;;;;;6.80;97.80;;;;;;5157789;27;19922;-69
2022/03/09 09:53:30;;;;;;;;;;;6.60;91.50;;;;;;5158048;27;19923;-69
2022/03/09 09:55:57;;;;;;;;;;;7.20;84.30;;;;;;5139388;27;20366;-69
2022/03/09 09:58:23;;;;;;;;;;;6.80;94.30;;;;;;5157871;27;20357;-70
2022/03/09 10:00:49;;;;;;;;;;;7.00;78.80;;;;;;5157639;27;19929;-70
2022/03/09 10:03:14;;;;;;;;;;;7.80;83.10;;;;;;5138830;27;20013;-71
2022/03/09 10:05:40;;;;;;;;;;;7.20;78.60;;;;;;5157487;27;20375;-69
2022/03/09 10:08:06;;;;;;;;;;;7.30;75.40;;;;;;5139069;27;19930;-70
2022/03/09 10:10:39;;;;;;;;;;;7.40;78.00;;;;;;5157512;27;20293;-71
2022/03/09 10:13:18;;;;;;;;;;;7.50;74.80;;;;;;5156992;27;20266;-68
2022/03/09 10:16:02;;;;;;;;;;;7.60;74.90;;;;;;5157320;27;20009;-69
2022/03/09 10:18:28;;;;;;;;;;;7.70;75.70;;;;;;5138639;27;19970;-70
2022/03/09 10:21:06;;;;;;;;;;;7.80;75.50;;;;;;5139034;27;19923;-69
2022/03/09 10:23:32;;;;;;;;;;;7.90;69.20;;;;;;5138356;27;19927;-70
2022/03/09 10:26:01;;;;;;;;;;;8.20;68.00;;;;;;5156762;27;20006;-69
2022/03/09 10:28:27;;;;;;;;;;;8.20;67.20;;;;;;5156958;27;20390;-72
2022/03/09 10:30:52;;;;;;;;;;;8.20;62.60;;;;;;5138713;27;19930;-69
2022/03/09 10:33:18;;;;;;;;;;;8.30;68.50;;;;;;5157242;27;19931;-70
2022/03/09 10:35:48;;;;;;;;;;;8.20;68.20;;;;;;5156951;27;20398;-69
2022/03/09 10:38:14;;;;;;;;;;;8.50;63.30;;;;;;5156793;27;19979;-69
2022/03/09 10:40:41;;;;;;;;;;;8.60;66.30;;;;;;5121184;27;19970;-70
2022/03/09 10:43:10;;;;;;;;;;;8.70;65.30;;;;;;5138100;27;19923;-68
2022/03/09 10:45:36;;;;;;;;;;;8.90;67.00;;;;;;5156716;27;19923;-70
2022/03/09 10:48:01;;;;;;;;;;;9.00;62.60;;;;;;5156587;27;19923;-70
2022/03/09 10:50:30;;;;;;;;;;;9.10;65.60;;;;;;5156684;27;19974;-70
2022/03/09 10:52:57;;;;;;;;;;;9.20;64.10;;;;;;5156680;27;19927;-72
2022/03/09 10:55:23;;;;;;;;;;;9.30;65.60;;;;;;5138310;27;19930;-70
2022/03/09 10:57:49;;;;;;;;;;;9.30;59.30;;;;;;5156374;27;19923;-70
2022/03/09 11:00:14;;;;;;;;;;;9.50;59.70;;;;;;5156367;27;19923;-71
2022/03/09 11:02:50;;;;;;;;;;;9.50;62.30;;;;;;5156245;27;19923;-70
2022/03/09 11:05:17;;;;;;;;;;;9.60;63.80;;;;;;5156449;27;20034;-73
2022/03/09 11:07:43;;;;;;;;;;;9.90;57.50;;;;;;5156421;27;20385;-70
2022/03/09 11:10:10;;;;;;;;;;;9.90;58.30;;;;;;5156318;27;19923;-70
2022/03/09 11:12:37;;;;;;;;;;;9.90;60.40;;;;;;5156184;27;19923;-70
2022/03/09 11:15:02;;;;;;;;;;;10.00;57.00;;;;;;5156380;27;20014;-69
2022/03/09 11:17:29;;;;;;;;;;;10.00;55.10;;;;;;5156233;27;20365;-71
2022/03/09 11:19:54;;;;;;;;;;;10.10;55.90;;;;;;5156167;27;19970;-69
2022/03/09 11:22:20;;;;;;;;;;;10.20;57.10;;;;;;5156016;27;19982;-70
2022/03/09 11:24:46;;;;;;;;;;;10.30;58.50;;;;;;5155995;27;19923;-70
2022/03/09 11:27:13;;;;;;;;;;;10.10;55.30;;;;;;5137417;27;19923;-73
2022/03/09 11:29:40;;;;;;;;;;;10.40;56.80;;;;;;5155816;27;19923;-73
2022/03/09 11:32:07;;;;;;;;;;;10.40;53.40;;;;;;5156042;27;19933;-70
2022/03/09 11:34:42;;;;;;;;;;;10.50;55.40;;;;;;5155867;27;19927;-69
2022/03/09 11:37:09;;;;;;;;;;;10.60;55.80;;;;;;5136734;27;19923;-72
2022/03/09 11:39:37;;;;;;;;;;;10.60;54.00;;;;;;5137311;27;20286;-70
2022/03/09 11:42:18;;;;;;;;;;;10.70;53.70;;;;;;5155647;27;19923;-70
2022/03/09 11:44:43;;;;;;;;;;;10.70;56.40;;;;;;5119770;27;20022;-70
2022/03/09 11:47:09;;;;;;;;;;;10.80;52.70;;;;;;5155541;27;20411;-71
2022/03/09 11:49:50;;;;;;;;;;;10.90;56.60;;;;;;5155478;27;19924;-70
2022/03/09 11:52:17;;;;;;;;;;;10.90;57.20;;;;;;5137115;27;20017;-70
2022/03/09 11:54:43;;;;;;;;;;;10.90;54.50;;;;;;5155489;27;19923;-70
2022/03/09 11:57:09;;;;;;;;;;;10.10;53.60;;;;;;5171714;27;19931;-70
2022/03/09 11:59:34;;;;;;;;;;;11.10;53.20;;;;;;5120045;27;20290;-73
2022/03/09 12:02:00;;;;;;;;;;;11.10;55.90;;;;;;5155466;27;19927;-71
2022/03/09 12:04:50;;;;;;;;;;;11.20;52.80;;;;;;5155407;27;20022;-71
2022/03/09 12:07:28;;;;;;;;;;;11.30;53.90;;;;;;5155453;27;19924;-71
2022/03/09 12:10:10;;;;;;;;;;;11.30;56.70;;;;;;5137006;27;19931;-71
2022/03/09 12:12:36;;;;;;;;;;;11.40;51.60;;;;;;5155466;27;20344;-70
2022/03/09 12:15:03;;;;;;;;;;;11.40;52.20;;;;;;5136406;27;19930;-70
2022/03/09 12:17:34;;;;;;;;;;;11.40;52.50;;;;;;5136711;27;19923;-72
2022/03/09 12:20:16;;;;;;;;;;;11.50;52.00;;;;;;5155127;27;19930;-73
2022/03/09 12:22:56;;;;;;;;;;;11.50;54.40;;;;;;5155153;27;20381;-73
2022/03/09 12:25:34;;;;;;;;;;;11.60;50.30;;;;;;5154834;27;20009;-70
2022/03/09 12:28:19;;;;;;;;;;;11.60;54.80;;;;;;5136709;27;19930;-72
2022/03/09 12:30:47;;;;;;;;;;;11.60;51.70;;;;;;5154776;27;19945;-74
2022/03/09 12:33:21;;;;;;;;;;;11.60;51.60;;;;;;5136936;27;19974;-70
2022/03/09 12:35:47;;;;;;;;;;;11.30;50.70;;;;;;5154994;27;19923;-72
2022/03/09 12:38:14;;;;;;;;;;;12.10;51.40;;;;;;5154917;27;19930;-72
2022/03/09 12:40:40;;;;;;;;;;;11.70;52.90;;;;;;5154941;27;19927;-70
2022/03/09 12:43:06;;;;;;;;;;;11.70;53.30;;;;;;5170967;27;19930;-68
2022/03/09 12:45:51;;;;;;;;;;;11.70;51.10;;;;;;5136426;27;19923;-69
2022/03/09 12:48:20;;;;;;;;;;;11.70;50.20;;;;;;5156784;27;20020;-69
2022/03/09 12:50:47;;;;;;;;;;;11.80;52.40;;;;;;5158706;27;19924;-72
2022/03/09 12:53:22;;;;;;;;;;;11.90;50.90;;;;;;5158822;27;19931;-69
2022/03/09 12:55:47;;;;;;;;;;;11.80;51.10;;;;;;5158578;27;19923;-71
2022/03/09 12:58:22;;;;;;;;;;;11.90;47.40;;;;;;5158909;27;19930;-71
2022/03/09 13:00:59;;;;;;;;;;;11.90;47.60;;;;;;5158785;27;19930;-71
2022/03/09 13:03:27;;;;;;;;;;;11.90;47.20;;;;;;5140138;27;19962;-72
2022/03/09 13:05:53;;;;;;;;;;;11.90;50.80;;;;;;5158434;27;20018;-70
2022/03/09 13:08:18;;;;;;;;;;;11.90;46.80;;;;;;5158493;27;20015;-72
2022/03/09 13:10:49;;;;;;;;;;;11.90;51.30;;;;;;5158338;27;19923;-75
2022/03/09 13:13:15;;;;;;;;;;;11.80;47.80;;;;;;5158423;27;19923;-71
2022/03/09 13:15:46;;;;;;;;;;;11.90;51.20;;;;;;5139020;27;19974;-73
2022/03/09 13:18:13;;;;;;;;;;;11.90;49.90;;;;;;5158330;27;19976;-71
2022/03/09 13:20:42;;;;;;;;;;;11.90;49.20;;;;;;5174558;27;20006;-71
2022/03/09 13:23:43;;;;;;;;;;;11.90;48.10;;;;;;5139707;27;19927;-71
2022/03/09 13:26:12;;;;;;;;;;;11.90;48.50;;;;;;5053992;28;19931;-71
2022/03/09 13:28:38;;;;;;;;;;;11.80;49.90;;;;;;5053994;28;19925;-71
2022/03/09 13:31:04;;;;;;;;;;;11.80;46.20;;;;;;5053944;28;20415;-73
2022/03/09 13:33:30;;;;;;;;;;;11.80;49.00;;;;;;5053699;28;20360;-69
2022/03/09 13:35:55;;;;;;;;;;;11.80;48.10;;;;;;5053635;28;19924;-71
2022/03/09 13:38:24;;;;;;;;;;;11.80;47.60;;;;;;5037383;28;19925;-70
2022/03/09 13:40:50;;;;;;;;;;;11.70;50.70;;;;;;5053604;28;20400;-72
2022/03/09 13:43:15;;;;;;;;;;;11.70;48.10;;;;;;5037010;28;19963;-70
2022/03/09 13:45:41;;;;;;;;;;;11.70;49.40;;;;;;5053679;28;19937;-70
2022/03/09 13:48:18;;;;;;;;;;;11.80;50.30;;;;;;5037214;28;20380;-73
2022/03/09 13:50:48;;;;;;;;;;;11.80;46.20;;;;;;5053443;28;20024;-71
2022/03/09 13:53:15;;;;;;;;;;;11.80;49.70;;;;;;5037116;28;19983;-71
2022/03/09 13:55:41;;;;;;;;;;;11.80;48.80;;;;;;5036856;28;19935;-70
2022/03/09 13:58:07;;;;;;;;;;;12.10;50.00;;;;;;5036926;28;20015;-70
2022/03/09 14:00:36;;;;;;;;;;;11.80;50.00;;;;;;5123796;27;20370;-70
2022/03/09 14:03:09;;;;;;;;;;;11.80;47.30;;;;;;5138982;27;19948;-71
2022/03/09 14:05:35;;;;;;;;;;;11.80;48.50;;;;;;5157424;27;20369;-73
2022/03/09 14:08:02;;;;;;;;;;;11.90;49.20;;;;;;5157518;27;19975;-73
2022/03/09 14:10:31;;;;;;;;;;;11.90;48.40;;;;;;5157189;27;19927;-74
2022/03/09 14:13:18;;;;;;;;;;;11.90;46.50;;;;;;5157231;27;19930;-73
2022/03/09 14:15:47;;;;;;;;;;;11.90;49.50;;;;;;5115515;28;19928;-71
2022/03/09 14:18:14;;;;;;;;;;;11.90;50.10;;;;;;5115983;28;20022;-71
2022/03/09 14:20:40;;;;;;;;;;;11.90;50.10;;;;;;5115479;28;19928;-72
2022/03/09 14:23:07;;;;;;;;;;;11.90;48.20;;;;;;5115799;28;19923;-71
2022/03/09 14:25:33;;;;;;;;;;;11.90;45.20;;;;;;5115761;28;19927;-71
2022/03/09 14:27:59;;;;;;;;;;;11.90;45.10;;;;;;5115554;28;20449;-71